CheckWX is a tool to help pilots better visualize weather data.  It is not intended as a substitute for an official pre-flight weather briefing.

19:44:38 UTC

KLGU METAR
Logan-Cache Airport
Logan, Utah, USA
Current

54 mins ago

KLGU 211851Z AUTO 33004KT 10SM OVC095 13/05 A3017 RMK AO2 SLP200 T01330050
Observed
Sep-21 @ 18:51 UTC
Wind
  • 330° at 4 KTS
Visibility
10 SM
Flight Rules
VFR
Cloud Levels
  • Overcast at 9,500' AGL
Temperature
13°C / 55°F
Dewpoint
C / 41°F
Humidity
59%
Altimeter
30.17" Hg
Pressure
1021.72 hPa
Previous

2 hours ago

KLGU 211751Z AUTO 01004KT 10SM OVC080 13/06 A3018 RMK AO2 SLP203 T01280056 10133 20072 58001
Observed
Sep-21 @ 17:51 UTC
Wind
  • 010° at 4 KTS
Visibility
10 SM
Flight Rules
VFR
Cloud Levels
  • Overcast at 8,000' AGL
Temperature
13°C / 55°F
Dewpoint
C / 43°F
Humidity
63%
Altimeter
30.18" Hg
Pressure
1022.02 hPa
Previous

3 hours ago

KLGU 211651Z AUTO 00000KT 10SM OVC060 12/06 A3018 RMK AO2 SLP205 T01170056
Observed
Sep-21 @ 16:51 UTC
Visibility
10 SM
Flight Rules
VFR
Cloud Levels
  • Overcast at 6,000' AGL
Temperature
12°C / 54°F
Dewpoint
C / 43°F
Humidity
67%
Altimeter
30.18" Hg
Pressure
1022.02 hPa